createdAt,value
2018-06-14T00:00:54.204Z,10.10
2018-06-14T00:03:22.380Z,10.07
2018-06-14T00:05:50.892Z,10.37
2018-06-14T00:08:19.344Z,10.30
2018-06-14T00:10:47.826Z,9.93
2018-06-14T00:13:16.261Z,10.30
2018-06-14T00:15:44.778Z,12.50
2018-06-14T00:18:13.239Z,14.13
2018-06-14T00:20:41.672Z,11.33
2018-06-14T00:23:10.146Z,11.10
2018-06-14T00:25:38.632Z,12.63
2018-06-14T00:28:07.113Z,12.87
2018-06-14T00:30:35.561Z,11.77
2018-06-14T00:33:04.042Z,12.70
2018-06-14T00:35:32.474Z,12.30
2018-06-14T00:38:00.955Z,12.00
2018-06-14T00:40:29.458Z,13.27
2018-06-14T00:42:57.981Z,12.20
2018-06-14T00:45:26.406Z,12.53
2018-06-14T00:47:54.837Z,12.60
2018-06-14T00:50:23.325Z,12.83
2018-06-14T00:52:51.787Z,13.83
2018-06-14T00:55:20.271Z,13.53
2018-06-14T00:57:48.694Z,15.53
2018-06-14T01:00:17.184Z,13.87
2018-06-14T01:02:45.633Z,15.67
2018-06-14T01:05:14.072Z,13.57
2018-06-14T01:07:42.558Z,14.13
2018-06-14T01:10:11.068Z,13.73
2018-06-14T01:12:39.513Z,13.37
2018-06-14T01:15:08.025Z,13.77
2018-06-14T01:17:36.460Z,15.93
2018-06-14T01:20:05.257Z,15.23
2018-06-14T01:22:33.764Z,14.03
2018-06-14T01:25:02.234Z,14.47
2018-06-14T01:27:30.691Z,13.73
2018-06-14T01:29:59.225Z,14.60
2018-06-14T01:32:27.674Z,15.87
2018-06-14T01:34:56.129Z,15.30
2018-06-14T01:37:35.788Z,16.00
2018-06-14T01:40:04.250Z,16.97
2018-06-14T01:42:32.688Z,15.80
2018-06-14T01:45:01.136Z,14.57
2018-06-14T01:47:29.758Z,14.27
2018-06-14T01:49:58.224Z,15.30
2018-06-14T01:52:26.768Z,13.37
2018-06-14T01:54:55.291Z,15.40
2018-06-14T01:57:23.736Z,14.17
2018-06-14T01:59:52.372Z,13.50
2018-06-14T02:02:20.877Z,14.67
2018-06-14T02:04:49.312Z,13.97
2018-06-14T02:07:17.785Z,15.20
2018-06-14T02:09:46.232Z,17.63
2018-06-14T02:12:14.677Z,17.57
2018-06-14T02:14:43.199Z,15.57
2018-06-14T02:17:11.665Z,17.10
2018-06-14T02:19:40.096Z,18.20
2018-06-14T02:22:08.277Z,15.47
2018-06-14T02:24:36.743Z,16.57
2018-06-14T02:27:05.265Z,20.23
2018-06-14T02:29:33.786Z,20.13
2018-06-14T02:32:02.353Z,18.60
2018-06-14T02:34:30.809Z,17.70
2018-06-14T02:36:59.312Z,18.30
2018-06-14T02:39:27.744Z,18.33
2018-06-14T02:41:56.213Z,19.77
2018-06-14T02:44:24.741Z,19.47
2018-06-14T02:46:53.190Z,21.40
2018-06-14T02:49:21.690Z,22.93
2018-06-14T02:51:50.115Z,19.37
2018-06-14T02:54:18.566Z,20.50
2018-06-14T02:56:47.063Z,21.37
2018-06-14T02:59:15.524Z,19.53
2018-06-14T03:01:44.098Z,22.67
2018-06-14T03:04:12.508Z,22.47
2018-06-14T03:06:40.925Z,21.93
2018-06-14T03:09:10.009Z,22.30
2018-06-14T03:11:38.445Z,23.23
2018-06-14T03:14:08.006Z,23.13
2018-06-14T03:16:36.470Z,21.90
2018-06-14T03:19:04.929Z,24.03
2018-06-14T03:21:33.388Z,28.17
2018-06-14T03:24:01.852Z,22.13
2018-06-14T03:26:30.305Z,21.80
2018-06-14T03:28:58.758Z,21.43
2018-06-14T03:31:27.231Z,22.63
2018-06-14T03:33:55.764Z,22.33
2018-06-14T03:36:24.257Z,24.60
2018-06-14T03:38:52.697Z,22.50
2018-06-14T03:41:21.167Z,23.67
2018-06-14T03:43:49.661Z,20.60
2018-06-14T03:46:18.105Z,21.70
2018-06-14T03:48:46.519Z,20.60
2018-06-14T03:51:15.018Z,22.67
2018-06-14T03:53:43.534Z,22.17
2018-06-14T03:56:11.996Z,19.27
2018-06-14T03:58:40.428Z,20.53
2018-06-14T04:01:08.945Z,21.37
2018-06-14T04:03:37.368Z,19.43
2018-06-14T04:06:05.896Z,19.07
2018-06-14T04:08:34.369Z,20.17
2018-06-14T04:11:02.785Z,19.50
2018-06-14T04:13:31.262Z,18.03
2018-06-14T04:15:59.835Z,19.23
2018-06-14T04:18:28.343Z,17.33
2018-06-14T04:20:56.757Z,19.57
2018-06-14T04:23:25.204Z,18.93
2018-06-14T04:25:53.726Z,17.83
2018-06-14T04:28:22.157Z,18.17
2018-06-14T04:30:50.568Z,16.73
2018-06-14T04:33:19.141Z,17.57
2018-06-14T04:35:47.603Z,17.57
2018-06-14T04:38:15.992Z,18.63
2018-06-14T04:40:44.447Z,17.77
2018-06-14T04:43:12.824Z,19.27
2018-06-14T04:45:41.224Z,18.80
2018-06-14T04:48:09.629Z,17.40
2018-06-14T04:50:38.008Z,18.53
2018-06-14T04:53:06.380Z,17.80
2018-06-14T05:06:58.563Z,18.67
2018-06-14T05:09:27.180Z,17.87
2018-06-14T05:11:55.676Z,17.50
2018-06-14T05:14:24.282Z,17.83
2018-06-14T05:16:53.153Z,21.07
2018-06-14T05:19:21.726Z,18.37
2018-06-14T05:21:50.312Z,16.73
2018-06-14T05:24:19.013Z,17.53
2018-06-14T05:26:47.478Z,17.13
2018-06-14T05:29:15.990Z,16.83
2018-06-14T05:31:44.525Z,17.43
2018-06-14T05:34:12.998Z,17.03
2018-06-14T05:36:41.614Z,17.13
2018-06-14T05:39:12.046Z,16.80
2018-06-14T05:41:41.455Z,16.33
2018-06-14T05:44:10.124Z,15.80
2018-06-14T05:46:39.401Z,16.63
2018-06-14T05:49:07.997Z,15.30
2018-06-14T05:51:36.468Z,16.70
2018-06-14T05:54:04.901Z,18.03
2018-06-14T05:56:33.364Z,15.73
2018-06-14T05:59:01.814Z,16.73
2018-06-14T06:01:30.301Z,18.40
2018-06-14T06:03:58.892Z,16.00
2018-06-14T06:06:27.364Z,16.93
2018-06-14T06:08:55.564Z,16.30
2018-06-14T06:11:24.249Z,16.50
2018-06-14T06:13:52.862Z,16.27
2018-06-14T06:16:21.332Z,18.30
2018-06-14T06:18:49.925Z,16.33
2018-06-14T06:21:18.358Z,17.37
2018-06-14T06:23:46.838Z,16.33
2018-06-14T06:26:15.567Z,15.50
2018-06-14T06:28:44.031Z,17.67
2018-06-14T06:31:12.699Z,17.80
2018-06-14T06:33:41.240Z,17.00
2018-06-14T06:36:09.745Z,17.30
2018-06-14T06:38:38.298Z,17.87
2018-06-14T06:41:06.963Z,18.10
2018-06-14T06:43:35.726Z,17.87
2018-06-14T06:46:04.226Z,17.70
2018-06-14T06:48:32.744Z,16.23
2018-06-14T06:51:01.329Z,17.63
2018-06-14T06:53:29.894Z,17.57
2018-06-14T06:55:58.619Z,17.27
2018-06-14T06:58:27.270Z,16.93
2018-06-14T07:00:55.501Z,16.93
2018-06-14T07:03:23.945Z,17.10
2018-06-14T07:05:52.589Z,16.20
2018-06-14T07:08:21.068Z,16.90
2018-06-14T07:10:49.492Z,17.17
2018-06-14T07:13:18.062Z,17.77
2018-06-14T07:15:46.500Z,16.67
2018-06-14T07:18:15.017Z,17.67
2018-06-14T07:20:43.591Z,17.67
2018-06-14T07:23:12.231Z,16.43
2018-06-14T07:25:40.794Z,18.63
2018-06-14T07:28:09.399Z,17.73
2018-06-14T07:30:37.999Z,16.47
2018-06-14T07:33:06.453Z,15.87
2018-06-14T07:35:34.972Z,15.80
2018-06-14T07:38:03.453Z,15.33
2018-06-14T07:40:31.951Z,15.23
2018-06-14T07:43:00.516Z,15.90
2018-06-14T07:45:29.023Z,15.33
2018-06-14T07:47:58.401Z,14.23
2018-06-14T07:50:26.824Z,16.07
2018-06-14T07:52:55.311Z,15.27
2018-06-14T07:55:23.880Z,14.00
2018-06-14T07:57:52.373Z,14.47
2018-06-14T08:00:21.325Z,15.27
2018-06-14T08:02:49.759Z,14.30
2018-06-14T08:05:18.245Z,13.27
2018-06-14T08:07:46.666Z,13.17
2018-06-14T08:10:15.241Z,12.33
2018-06-14T08:12:43.741Z,14.03
2018-06-14T08:15:12.665Z,11.73
2018-06-14T08:17:41.226Z,10.53
2018-06-14T08:20:09.723Z,10.40
2018-06-14T08:22:38.695Z,11.13
2018-06-14T08:25:06.806Z,9.17
2018-06-14T08:27:35.240Z,8.80
2018-06-14T08:30:03.773Z,9.53
2018-06-14T08:32:32.205Z,10.20
2018-06-14T08:35:00.817Z,8.90
2018-06-14T08:37:30.558Z,8.13
2018-06-14T08:39:59.582Z,9.00
2018-06-14T08:42:29.098Z,8.47
2018-06-14T08:44:57.936Z,8.63
2018-06-14T08:47:26.924Z,9.17
2018-06-14T08:49:55.830Z,8.13
2018-06-14T08:52:24.663Z,7.73
2018-06-14T08:54:53.446Z,9.03
2018-06-14T08:57:21.994Z,6.70
2018-06-14T08:59:50.712Z,7.30
2018-06-14T09:02:19.457Z,6.77
2018-06-14T09:04:48.012Z,6.50
2018-06-14T09:07:16.477Z,5.63
2018-06-14T09:09:44.892Z,6.00
2018-06-14T09:12:13.454Z,5.87
2018-06-14T09:14:41.931Z,5.33
2018-06-14T09:17:10.411Z,5.63
2018-06-14T09:19:38.544Z,5.73
2018-06-14T09:22:07.268Z,5.03
2018-06-14T09:24:35.693Z,5.47
2018-06-14T09:27:04.612Z,9.87
2018-06-14T09:29:33.367Z,7.47
2018-06-14T09:32:02.069Z,5.73
2018-06-14T09:34:30.689Z,8.53
2018-06-14T09:36:59.415Z,5.90
2018-06-14T09:39:27.900Z,5.20
2018-06-14T09:41:56.338Z,5.70
2018-06-14T09:44:24.916Z,5.10
2018-06-14T09:46:53.439Z,5.07
2018-06-14T09:49:22.081Z,5.50
2018-06-14T09:51:51.013Z,4.97
2018-06-14T09:54:19.685Z,7.33
2018-06-14T09:56:48.227Z,5.70
2018-06-14T09:59:16.687Z,6.63
2018-06-14T10:01:45.168Z,5.90
2018-06-14T10:04:13.851Z,6.10
2018-06-14T10:06:42.395Z,6.57
2018-06-14T10:09:12.466Z,6.30
2018-06-14T10:11:41.190Z,8.07
2018-06-14T10:14:09.970Z,6.60
2018-06-14T10:16:38.467Z,6.70
2018-06-14T10:19:06.895Z,7.77
2018-06-14T10:21:35.333Z,8.30
2018-06-14T10:24:04.128Z,8.53
2018-06-14T10:26:32.774Z,9.43
2018-06-14T10:29:01.500Z,9.70
2018-06-14T10:31:30.045Z,9.40
2018-06-14T10:33:58.557Z,9.17
2018-06-14T10:36:27.081Z,8.97
2018-06-14T10:38:55.833Z,9.87
2018-06-14T10:52:38.602Z,10.37
2018-06-14T11:13:53.545Z,10.40
2018-06-14T11:16:43.839Z,10.67
2018-06-14T11:22:22.796Z,11.03
2018-06-14T11:25:09.700Z,9.43
2018-06-14T11:50:42.947Z,9.77
2018-06-14T11:53:12.079Z,8.53
2018-06-14T11:55:40.568Z,9.00
2018-06-14T11:58:09.320Z,7.77
2018-06-14T12:00:37.978Z,8.27
2018-06-14T12:03:06.558Z,7.67
2018-06-14T12:05:35.253Z,7.13
2018-06-14T12:08:03.910Z,7.33
2018-06-14T12:10:32.371Z,6.40
2018-06-14T12:13:00.839Z,5.63
2018-06-14T12:15:29.590Z,7.90
2018-06-14T12:17:58.009Z,6.40
2018-06-14T12:20:26.465Z,6.03
2018-06-14T12:22:55.033Z,5.30
2018-06-14T12:25:23.644Z,5.83
2018-06-14T12:27:52.373Z,6.37
2018-06-14T12:30:21.278Z,5.97
2018-06-14T12:32:49.734Z,5.83
2018-06-14T12:35:18.217Z,5.67
2018-06-14T12:37:46.785Z,5.60
2018-06-14T12:40:15.197Z,5.63
2018-06-14T12:42:43.697Z,6.57
2018-06-14T12:45:12.177Z,4.90
2018-06-14T12:47:41.063Z,5.73
2018-06-14T12:50:10.046Z,5.63
2018-06-14T12:52:38.718Z,5.37
2018-06-14T12:55:07.239Z,5.20
2018-06-14T12:57:36.032Z,5.23
2018-06-14T13:00:04.708Z,5.30
2018-06-14T13:02:33.196Z,5.50
2018-06-14T13:05:01.684Z,4.87
2018-06-14T13:07:30.177Z,4.87
2018-06-14T13:09:58.701Z,7.17
2018-06-14T13:12:27.268Z,5.10
2018-06-14T13:14:55.870Z,5.03
2018-06-14T13:17:24.878Z,5.90
2018-06-14T13:19:53.593Z,5.10
2018-06-14T13:22:22.208Z,5.47
2018-06-14T13:24:50.749Z,4.93
2018-06-14T13:27:19.441Z,6.27
2018-06-14T13:29:47.975Z,4.97
2018-06-14T13:32:16.475Z,5.37
2018-06-14T13:34:45.059Z,5.27
2018-06-14T13:37:13.757Z,5.30
2018-06-14T13:39:42.326Z,5.83
2018-06-14T13:42:10.885Z,4.40
2018-06-14T13:44:39.385Z,4.80
2018-06-14T13:47:08.128Z,4.70
2018-06-14T13:49:36.587Z,5.60
2018-06-14T13:52:05.834Z,5.00
2018-06-14T13:54:34.382Z,5.60
2018-06-14T13:57:02.991Z,5.20
2018-06-14T13:59:32.640Z,4.43
2018-06-14T14:02:01.531Z,4.93
2018-06-14T14:04:30.181Z,4.30
2018-06-14T14:07:04.886Z,4.20
2018-06-14T14:09:35.679Z,4.50
2018-06-14T14:12:04.226Z,4.60
2018-06-14T14:14:33.208Z,4.27
2018-06-14T14:17:01.694Z,4.60
2018-06-14T14:19:30.320Z,4.93
2018-06-14T14:21:59.421Z,3.57
2018-06-14T14:24:27.938Z,3.63
2018-06-14T14:26:56.838Z,4.37
2018-06-14T14:29:26.083Z,5.50
2018-06-14T14:31:54.875Z,3.83
2018-06-14T14:34:23.865Z,4.27
2018-06-14T14:36:52.724Z,3.73
2018-06-14T14:39:21.205Z,3.97
2018-06-14T14:41:49.918Z,5.37
2018-06-14T14:44:18.776Z,6.20
2018-06-14T14:46:47.086Z,4.80
2018-06-14T14:49:15.732Z,4.60
2018-06-14T14:51:44.488Z,4.37
2018-06-14T14:54:13.300Z,6.70
2018-06-14T14:56:42.265Z,4.77
2018-06-14T14:59:10.987Z,6.03
2018-06-14T15:01:39.749Z,5.07
2018-06-14T15:04:08.437Z,5.13
2018-06-14T15:06:40.541Z,5.80
2018-06-14T15:09:15.677Z,5.37
2018-06-14T15:11:44.149Z,7.23
2018-06-14T15:14:12.595Z,4.70
2018-06-14T15:16:41.124Z,5.17
2018-06-14T15:19:09.552Z,6.17
2018-06-14T15:21:38.023Z,6.53
2018-06-14T15:24:06.560Z,6.10
2018-06-14T15:26:36.008Z,4.50
2018-06-14T15:29:04.490Z,6.37
2018-06-14T15:31:32.955Z,5.40
2018-06-14T15:34:01.365Z,4.57
2018-06-14T15:36:29.816Z,4.40
2018-06-14T15:38:58.312Z,4.40
2018-06-14T15:41:27.213Z,6.03
2018-06-14T15:43:55.700Z,4.40
2018-06-14T15:46:24.178Z,7.07
2018-06-14T15:48:52.746Z,6.83
2018-06-14T15:51:21.282Z,5.63
2018-06-14T15:53:49.746Z,5.00
2018-06-14T15:56:42.427Z,4.63
2018-06-14T15:59:13.182Z,4.10
2018-06-14T16:01:41.349Z,4.17
2018-06-14T16:04:12.798Z,3.80
2018-06-14T16:06:41.293Z,5.47
2018-06-14T16:09:10.924Z,4.70
2018-06-14T16:11:39.357Z,4.57
2018-06-14T16:14:08.453Z,6.10
2018-06-14T16:16:36.898Z,8.20
2018-06-14T16:19:05.570Z,5.70
2018-06-14T16:21:34.571Z,5.97
2018-06-14T16:24:03.092Z,6.50
2018-06-14T16:26:31.612Z,7.63
2018-06-14T16:29:00.202Z,12.40
2018-06-14T16:31:28.677Z,7.80
2018-06-14T16:33:57.153Z,35.43
2018-06-14T16:36:25.689Z,18.43
2018-06-14T16:38:54.173Z,943.57
2018-06-14T16:41:22.668Z,1080.03
2018-06-14T16:43:51.226Z,1754.80
2018-06-14T16:46:19.732Z,1381.37
2018-06-14T16:48:48.206Z,535.80
2018-06-14T16:51:17.415Z,611.50
2018-06-14T16:53:46.034Z,337.60
2018-06-14T16:56:14.490Z,57.03
2018-06-14T16:58:42.969Z,10.50
2018-06-14T17:01:11.495Z,8.60
2018-06-14T17:03:40.477Z,6.83
2018-06-14T17:06:09.006Z,6.90
2018-06-14T17:08:37.458Z,11.27
2018-06-14T17:11:06.003Z,8.27
2018-06-14T17:13:34.454Z,10.33
2018-06-14T17:16:03.065Z,8.03
2018-06-14T17:18:31.489Z,11.27
2018-06-14T17:21:03.633Z,9.73
2018-06-14T17:23:32.539Z,8.33
2018-06-14T17:26:02.029Z,8.40
2018-06-14T17:28:30.740Z,8.77
2018-06-14T17:30:59.168Z,6.20
2018-06-14T17:33:27.656Z,9.73
2018-06-14T17:35:56.106Z,8.57
2018-06-14T17:38:24.575Z,6.83
2018-06-14T17:40:53.086Z,5.53
2018-06-14T17:43:21.614Z,4.57
2018-06-14T17:45:50.157Z,5.03
2018-06-14T17:48:18.815Z,7.67
2018-06-14T17:50:47.293Z,7.17
2018-06-14T17:53:15.783Z,12.73
2018-06-14T17:55:44.320Z,11.70
2018-06-14T17:58:12.780Z,4.97
2018-06-14T18:00:41.229Z,5.73
2018-06-14T18:03:09.739Z,12.97
2018-06-14T18:05:38.246Z,5.63
2018-06-14T18:08:06.716Z,32.10
2018-06-14T18:10:35.188Z,6.63
2018-06-14T18:13:03.704Z,6.37
2018-06-14T18:15:32.133Z,5.53
2018-06-14T18:18:00.650Z,3.80
2018-06-14T18:20:29.214Z,5.97
2018-06-14T18:22:57.667Z,4.10
2018-06-14T18:25:26.112Z,3.90
2018-06-14T18:27:54.619Z,4.43
2018-06-14T18:30:23.054Z,3.90
2018-06-14T18:32:51.247Z,4.23
2018-06-14T18:35:19.801Z,5.00
2018-06-14T18:37:48.342Z,6.73
2018-06-14T18:40:16.825Z,5.13
2018-06-14T18:42:45.273Z,5.03
2018-06-14T18:45:13.852Z,6.27
2018-06-14T18:47:42.288Z,5.00
2018-06-14T18:50:10.724Z,6.03
2018-06-14T18:52:39.238Z,5.27
2018-06-14T18:55:07.695Z,5.00
2018-06-14T18:57:36.194Z,5.63
2018-06-14T19:00:05.099Z,5.47
2018-06-14T19:02:33.576Z,5.90
2018-06-14T19:05:02.104Z,4.90
2018-06-14T19:07:30.612Z,6.83
2018-06-14T19:09:59.085Z,6.13
2018-06-14T19:12:27.572Z,8.27
2018-06-14T19:14:56.071Z,14.50
2018-06-14T19:17:24.631Z,10.73
2018-06-14T19:19:53.113Z,14.20
2018-06-14T19:22:21.613Z,17.77
2018-06-14T19:24:50.181Z,13.60
2018-06-14T19:27:18.648Z,15.50
2018-06-14T19:29:47.146Z,14.07
2018-06-14T19:32:15.883Z,58.67
2018-06-14T19:34:44.409Z,9.13
2018-06-14T19:37:12.913Z,9.53
2018-06-14T19:39:41.396Z,10.67
2018-06-14T19:42:09.851Z,8.97
2018-06-14T19:44:38.345Z,5.60
2018-06-14T19:47:06.820Z,5.40
2018-06-14T19:49:35.310Z,6.13
2018-06-14T19:52:03.920Z,5.63
2018-06-14T19:54:32.433Z,5.50
2018-06-14T19:57:00.914Z,6.00
2018-06-14T19:59:29.458Z,5.90
2018-06-14T20:01:57.961Z,5.67
2018-06-14T20:04:26.554Z,5.73
2018-06-14T20:15:31.172Z,7.37
2018-06-14T20:17:59.725Z,7.30
2018-06-14T20:20:28.362Z,6.93
2018-06-14T20:22:56.847Z,6.13
2018-06-14T20:25:25.342Z,7.80
2018-06-14T20:27:54.027Z,7.23
2018-06-14T20:30:22.548Z,6.00
2018-06-14T20:32:51.049Z,8.43
2018-06-14T20:35:19.532Z,6.37
2018-06-14T20:37:48.025Z,5.83
2018-06-14T20:40:16.818Z,8.03
2018-06-14T20:42:44.956Z,7.43
2018-06-14T20:45:13.458Z,7.77
2018-06-14T20:47:41.964Z,9.53
2018-06-14T20:50:10.425Z,9.07
2018-06-14T20:52:38.929Z,7.20
2018-06-14T20:55:07.617Z,6.50
2018-06-14T20:57:36.385Z,6.70
2018-06-14T21:00:04.938Z,7.67
2018-06-14T21:02:33.436Z,6.40
2018-06-14T21:05:01.949Z,6.20
2018-06-14T21:07:30.401Z,5.73
2018-06-14T21:09:58.989Z,8.90
2018-06-14T21:12:27.835Z,8.13
2018-06-14T21:14:56.286Z,7.07
2018-06-14T21:17:24.870Z,8.50
2018-06-14T21:19:53.321Z,6.60
2018-06-14T21:22:21.761Z,6.73
2018-06-14T21:24:50.305Z,6.97
2018-06-14T21:27:18.794Z,10.73
2018-06-14T21:29:47.252Z,8.07
2018-06-14T21:32:15.757Z,11.80
2018-06-14T21:34:44.239Z,6.43
2018-06-14T21:37:12.737Z,6.17
2018-06-14T21:39:41.352Z,7.97
2018-06-14T21:42:09.800Z,9.43
2018-06-14T21:44:38.253Z,6.47
2018-06-14T21:47:06.706Z,6.27
2018-06-14T21:49:35.151Z,7.83
2018-06-14T21:52:03.742Z,5.57
2018-06-14T21:54:32.204Z,7.50
2018-06-14T21:57:00.335Z,6.90
2018-06-14T21:59:28.968Z,5.83
2018-06-14T22:01:57.438Z,6.63
2018-06-14T22:04:25.894Z,6.33
2018-06-14T22:06:54.382Z,5.73
2018-06-14T22:09:22.836Z,6.93
2018-06-14T22:11:51.301Z,6.17
2018-06-14T22:14:19.802Z,6.90
2018-06-14T22:16:48.262Z,5.03
2018-06-14T22:19:16.733Z,6.13
2018-06-14T22:21:45.244Z,4.90
2018-06-14T22:24:13.688Z,7.90
2018-06-14T22:26:42.148Z,12.50
2018-06-14T22:29:10.594Z,8.77
2018-06-14T22:31:39.088Z,10.37
2018-06-14T22:34:18.695Z,5.80
2018-06-14T22:36:47.198Z,4.57
2018-06-14T22:39:15.674Z,6.00
2018-06-14T22:41:44.126Z,4.30
2018-06-14T22:44:12.735Z,4.77
2018-06-14T22:46:41.184Z,4.70
2018-06-14T22:49:09.712Z,4.27
2018-06-14T22:51:59.884Z,4.07
2018-06-14T22:54:28.367Z,5.37
2018-06-14T22:56:56.898Z,4.63
2018-06-14T22:59:25.448Z,5.03
2018-06-14T23:01:53.889Z,4.00
2018-06-14T23:04:24.402Z,4.37
2018-06-14T23:06:52.976Z,5.77
2018-06-14T23:10:37.597Z,4.03
2018-06-14T23:13:10.291Z,4.00
2018-06-14T23:18:39.197Z,5.50
2018-06-14T23:21:20.528Z,5.97
2018-06-14T23:29:30.918Z,5.63
2018-06-14T23:32:13.675Z,6.47
2018-06-14T23:34:47.304Z,4.70
2018-06-14T23:37:28.245Z,4.53
2018-06-14T23:43:01.235Z,6.07
2018-06-14T23:45:45.675Z,4.93
2018-06-14T23:48:19.866Z,5.77
2018-06-14T23:50:58.773Z,5.30
2018-06-14T23:53:36.126Z,7.17
2018-06-14T23:56:12.886Z,5.23
2018-06-14T23:59:02.745Z,5.57
